Time;durP1;ratioP1;P1;durP2;ratioP2;P2;SDS_P1;SDS_P2;PMS_P1;PMS_P2;Temp;Humidity;BMP_temperature;BMP_pressure;BME280_temperature;BME280_humidity;BME280_pressure;Samples;Min_cycle;Max_cycle;Signal;HPM_P1;HPM_P2
2023/06/19 00:01:03;;;;;;;;;;;;;;;-144.99;75.44;52162.75;5058876;28;19961;-67
2023/06/19 00:03:30;;;;;;;;;;;;;;;-144.99;74.76;52162.75;5059405;28;19956;-70
2023/06/19 00:05:56;;;;;;;;;;;;;;;-144.99;75.36;52162.75;5067528;28;20043;-71
2023/06/19 00:08:23;;;;;;;;;;;;;;;-144.99;75.74;52162.75;5067045;28;19946;-70
2023/06/19 00:10:50;;;;;;;;;;;;;;;-144.99;76.03;52146.44;5061388;28;20395;-71
2023/06/19 00:13:16;;;;;;;;;;;;;;;-144.99;76.52;52156.63;5072160;28;19944;-72
2023/06/19 00:15:44;;;;;;;;;;;;;;;-144.99;76.52;52164.78;5072728;28;19993;-72
2023/06/19 00:18:11;;;;;;;;;;;;;;;-144.99;76.78;52146.44;5073147;28;19950;-72
2023/06/19 00:20:39;;;;;;;;;;;;;;;-144.99;75.34;52117.91;5062130;28;19960;-72
2023/06/19 00:23:10;;;;;;;;;;;;;;;-144.99;76.43;52134.22;5064618;28;19987;-75
2023/06/19 00:25:37;;;;;;;;;;;;;;;-144.99;76.77;52156.63;5066438;28;19941;-74
2023/06/19 00:28:03;;;;;;;;;;;;;;;-144.99;77.45;52164.78;5067287;28;19947;-76
2023/06/19 00:30:32;;;;;;;;;;;;;;;-144.99;77.81;52134.22;5067958;28;19971;-66
2023/06/19 00:33:03;;;;;;;;;;;;;;;-144.99;77.51;52162.75;5065663;28;20002;-66
2023/06/19 00:35:29;;;;;;;;;;;;;;;-144.99;78.34;52126.06;5065838;28;20029;-73
2023/06/19 00:37:56;;;;;;;;;;;;;;;-144.99;77.01;52142.38;5046978;28;19939;-70
2023/06/19 00:40:27;;;;;;;;;;;;;;;-144.99;76.31;52154.59;5053552;28;20443;-71
2023/06/19 00:42:54;;;;;;;;;;;;;;;-144.99;77.14;52170.91;5050749;28;20302;-70
2023/06/19 00:45:20;;;;;;;;;;;;;;;-144.99;78.06;52113.84;5052186;28;19958;-70
2023/06/19 00:47:47;;;;;;;;;;;;;;;-144.99;78.42;52156.63;5054080;28;19948;-71
2023/06/19 00:50:15;;;;;;;;;;;;;;;-144.99;78.42;52150.53;5057586;28;19978;-72
2023/06/19 00:52:42;;;;;;;;;;;;;;;-144.99;78.57;52179.06;5054681;28;20031;-74
2023/06/19 00:55:09;;;;;;;;;;;;;;;-144.99;78.63;52195.34;5045576;28;19988;-72
2023/06/19 00:57:36;;;;;;;;;;;;;;;-144.99;78.39;52162.75;5063865;28;19963;-68
2023/06/19 01:00:04;;;;;;;;;;;;;;;-144.99;78.48;52183.13;5061986;28;20327;-68
2023/06/19 01:02:31;;;;;;;;;;;;;;;-144.99;78.37;52162.75;5064617;28;19962;-68
2023/06/19 01:04:58;;;;;;;;;;;;;;;-144.99;78.50;52170.91;5062312;28;20151;-69
2023/06/19 01:07:30;;;;;;;;;;;;;;;-144.99;78.91;52117.91;5061180;28;19952;-69
2023/06/19 01:10:00;;;;;;;;;;;;;;;-144.99;78.69;52177.00;5063359;28;19951;-69
2023/06/19 01:12:31;;;;;;;;;;;;;;;-144.99;78.73;52177.00;5065678;28;20039;-69
2023/06/19 01:14:59;;;;;;;;;;;;;;;-144.99;78.63;52197.41;5055235;28;20364;-68
2023/06/19 01:17:27;;;;;;;;;;;;;;;-144.99;78.73;52158.66;5064611;28;19939;-69
2023/06/19 01:19:54;;;;;;;;;;;;;;;-144.99;79.00;52142.38;5063227;28;19987;-69
2023/06/19 01:22:26;;;;;;;;;;;;;;;-144.99;78.91;52154.59;5064999;28;20291;-69
2023/06/19 01:24:52;;;;;;;;;;;;;;;-144.99;78.85;52134.22;5060999;28;20315;-69
2023/06/19 01:27:19;;;;;;;;;;;;;;;-144.99;78.84;52130.13;5056283;28;19942;-67
2023/06/19 01:29:46;;;;;;;;;;;;;;;-144.99;78.61;52183.13;5069153;28;19954;-67
2023/06/19 01:32:16;;;;;;;;;;;;;;;-144.99;78.41;52199.44;5071559;28;19955;-67
2023/06/19 01:34:43;;;;;;;;;;;;;;;-144.99;78.47;52162.75;5061603;28;19943;-67
2023/06/19 01:37:11;;;;;;;;;;;;;;;-144.99;78.54;52158.66;5071448;28;19962;-66
2023/06/19 01:39:40;;;;;;;;;;;;;;;-144.99;78.59;52166.81;5065826;28;19924;-67
2023/06/19 01:42:09;;;;;;;;;;;;;;;-144.99;78.74;52158.66;5058032;28;19954;-69
2023/06/19 01:44:36;;;;;;;;;;;;;;;-144.99;78.65;52166.81;5056086;28;19947;-67
2023/06/19 01:47:08;;;;;;;;;;;;;;;-144.99;78.70;52197.41;5063598;28;20405;-67
2023/06/19 01:49:34;;;;;;;;;;;;;;;-144.99;78.90;52183.13;5060572;28;19962;-68
2023/06/19 01:52:01;;;;;;;;;;;;;;;-144.99;78.94;52183.13;5068744;28;19947;-70
2023/06/19 01:54:28;;;;;;;;;;;;;;;-144.99;78.95;52185.16;5056523;28;20034;-68
2023/06/19 01:56:56;;;;;;;;;;;;;;;-144.99;79.08;52162.75;5056680;28;19948;-69
2023/06/19 01:59:23;;;;;;;;;;;;;;;-144.99;78.91;52146.44;5066029;28;20432;-71
2023/06/19 02:01:49;;;;;;;;;;;;;;;-144.99;78.68;52138.28;5060532;28;20405;-70
2023/06/19 02:04:16;;;;;;;;;;;;;;;-144.99;78.82;52170.91;5065425;28;19954;-71
2023/06/19 02:06:43;;;;;;;;;;;;;;;-144.99;78.84;52183.13;5064645;28;19952;-71
2023/06/19 02:09:09;;;;;;;;;;;;;;;-144.99;79.10;52134.22;5062266;28;20041;-71
2023/06/19 02:11:36;;;;;;;;;;;;;;;-144.99;79.46;52170.91;5059906;28;19947;-72
2023/06/19 02:14:04;;;;;;;;;;;;;;;-144.99;79.16;52158.66;5058847;28;20171;-70
2023/06/19 02:16:31;;;;;;;;;;;;;;;-144.99;79.04;52162.75;5062422;28;19955;-69
2023/06/19 02:18:57;;;;;;;;;;;;;;;-144.99;79.01;52172.94;5073338;28;20012;-68
2023/06/19 02:21:24;;;;;;;;;;;;;;;-144.99;78.56;52162.75;5057068;28;20302;-69
2023/06/19 02:23:51;;;;;;;;;;;;;;;-144.99;78.75;52181.09;5065818;28;19952;-66
2023/06/19 02:26:17;;;;;;;;;;;;;;;-144.99;78.91;52170.91;5064901;28;20063;-66
2023/06/19 02:28:44;;;;;;;;;;;;;;;-144.99;79.42;52138.28;5063509;28;19946;-66
2023/06/19 02:31:12;;;;;;;;;;;;;;;-144.99;79.28;52170.91;5063015;28;19952;-65
2023/06/19 02:33:38;;;;;;;;;;;;;;;-144.99;79.16;52174.97;5071939;28;20417;-65
2023/06/19 02:36:05;;;;;;;;;;;;;;;-144.99;79.25;52183.13;5052810;28;19925;-65
2023/06/19 02:38:32;;;;;;;;;;;;;;;-144.99;79.30;52191.28;5059874;28;19943;-65
2023/06/19 02:41:01;;;;;;;;;;;;;;;-144.99;79.46;52187.19;5061983;28;20601;-65
2023/06/19 02:43:27;;;;;;;;;;;;;;;-144.99;79.21;52199.44;5048586;28;19997;-66
2023/06/19 02:45:54;;;;;;;;;;;;;;;-144.99;79.14;52166.81;5064040;28;19940;-67
2023/06/19 02:48:23;;;;;;;;;;;;;;;-144.99;79.27;52191.28;5056522;28;19950;-67
2023/06/19 02:50:49;;;;;;;;;;;;;;;-144.99;79.34;52164.78;5059418;28;19960;-74
2023/06/19 02:53:16;;;;;;;;;;;;;;;-144.99;78.82;52172.94;5060206;28;19968;-75
2023/06/19 02:55:43;;;;;;;;;;;;;;;-144.99;79.00;52187.19;5065956;28;19979;-74
2023/06/19 02:58:10;;;;;;;;;;;;;;;-144.99;78.78;52191.28;5054047;28;19964;-75
2023/06/19 03:00:37;;;;;;;;;;;;;;;-144.99;79.16;52166.81;5058982;28;20001;-75
2023/06/19 03:03:03;;;;;;;;;;;;;;;-144.99;78.98;52156.63;5056903;28;20336;-75
2023/06/19 03:05:31;;;;;;;;;;;;;;;-144.99;79.05;52166.81;5063796;28;19952;-75
2023/06/19 03:07:58;;;;;;;;;;;;;;;-144.99;79.26;52113.84;5054985;28;20067;-76
2023/06/19 03:10:25;;;;;;;;;;;;;;;-144.99;79.42;52185.16;5077780;28;19955;-67
2023/06/19 03:12:51;;;;;;;;;;;;;;;-144.99;79.69;52158.66;5067717;28;20259;-67
2023/06/19 03:15:18;;;;;;;;;;;;;;;-144.99;79.87;52154.59;5065240;28;20441;-68
2023/06/19 03:17:44;;;;;;;;;;;;;;;-144.99;79.66;52162.75;5070801;28;19941;-67
2023/06/19 03:20:12;;;;;;;;;;;;;;;-144.99;79.95;52166.81;5068717;28;19960;-67
2023/06/19 03:22:41;;;;;;;;;;;;;;;-144.99;80.00;52154.59;5071794;28;19955;-66
2023/06/19 03:25:08;;;;;;;;;;;;;;;-144.99;79.94;52170.91;5070792;28;20381;-66
2023/06/19 03:27:36;;;;;;;;;;;;;;;-144.99;80.18;52179.06;5068132;28;19949;-67
2023/06/19 03:30:05;;;;;;;;;;;;;;;-144.99;79.72;52187.19;5064681;28;19973;-66
2023/06/19 03:32:32;;;;;;;;;;;;;;;-144.99;79.74;52146.44;5068951;28;19943;-66
2023/06/19 03:35:00;;;;;;;;;;;;;;;-144.99;80.16;52146.44;5068596;28;19942;-67
2023/06/19 03:37:27;;;;;;;;;;;;;;;-144.99;80.50;52162.75;5064030;28;19947;-67
2023/06/19 03:39:55;;;;;;;;;;;;;;;-144.99;80.31;52162.75;5066119;28;19924;-67
2023/06/19 03:42:22;;;;;;;;;;;;;;;-144.99;80.08;52181.09;5060446;28;19964;-67
2023/06/19 03:44:48;;;;;;;;;;;;;;;-144.99;80.43;52168.84;5053823;28;20022;-71
2023/06/19 03:47:16;;;;;;;;;;;;;;;-144.99;80.48;52179.06;5062179;28;19943;-71
2023/06/19 03:49:42;;;;;;;;;;;;;;;-144.99;80.48;52179.06;5067540;28;20180;-67
2023/06/19 03:52:09;;;;;;;;;;;;;;;-144.99;80.18;52168.84;5069759;28;19924;-66
2023/06/19 03:54:35;;;;;;;;;;;;;;;-144.99;80.45;52191.28;5060095;28;19937;-66
2023/06/19 03:57:04;;;;;;;;;;;;;;;-144.99;80.31;52213.69;5066575;28;19935;-66
2023/06/19 03:59:30;;;;;;;;;;;;;;;-144.99;80.52;52168.84;5060333;28;19955;-70
2023/06/19 04:01:57;;;;;;;;;;;;;;;-144.99;80.59;52146.44;5068989;28;20433;-69
2023/06/19 04:04:24;;;;;;;;;;;;;;;-144.99;80.62;52181.09;5060157;28;19948;-74
2023/06/19 04:06:50;;;;;;;;;;;;;;;-144.99;80.62;52174.97;5066577;28;19947;-74
2023/06/19 04:09:17;;;;;;;;;;;;;;;-144.99;80.51;52179.06;5067452;28;20073;-74
2023/06/19 04:11:43;;;;;;;;;;;;;;;-144.99;80.56;52134.22;5075987;28;19943;-72
2023/06/19 04:14:11;;;;;;;;;;;;;;;-144.99;80.72;52172.94;5059365;28;20434;-72
2023/06/19 04:16:38;;;;;;;;;;;;;;;-144.99;80.41;52158.66;5068400;28;20322;-72
2023/06/19 04:19:05;;;;;;;;;;;;;;;-144.99;80.15;52211.66;5065632;28;19935;-71
2023/06/19 04:21:31;;;;;;;;;;;;;;;-144.99;80.15;52174.97;5065206;28;19943;-71
2023/06/19 04:23:58;;;;;;;;;;;;;;;-144.99;80.34;52134.22;5065738;28;20077;-71
2023/06/19 04:26:25;;;;;;;;;;;;;;;-144.99;80.17;52152.56;5057794;28;19928;-72
2023/06/19 04:28:52;;;;;;;;;;;;;;;-144.99;80.25;52183.13;5065865;28;20415;-72
2023/06/19 04:31:20;;;;;;;;;;;;;;;-144.99;80.34;52148.47;5067394;28;20048;-72
2023/06/19 04:33:46;;;;;;;;;;;;;;;-144.99;80.29;52158.66;5069730;28;20404;-72
2023/06/19 04:36:14;;;;;;;;;;;;;;;-144.99;80.25;52154.59;5053720;28;19954;-72
2023/06/19 04:38:40;;;;;;;;;;;;;;;-144.99;80.45;52172.94;5053601;28;19944;-73
2023/06/19 04:41:07;;;;;;;;;;;;;;;-144.99;80.43;52183.13;5057287;28;19956;-69
2023/06/19 04:43:34;;;;;;;;;;;;;;;-144.99;80.55;52170.91;5064065;28;19964;-68
2023/06/19 04:46:03;;;;;;;;;;;;;;;-144.99;80.58;52197.41;5066090;28;19965;-69
2023/06/19 04:48:31;;;;;;;;;;;;;;;-144.99;80.59;52177.00;5052129;28;19967;-69
2023/06/19 04:51:00;;;;;;;;;;;;;;;-144.99;80.78;52170.91;5059380;28;20171;-67
2023/06/19 04:53:27;;;;;;;;;;;;;;;-144.99;80.66;52136.25;5066452;28;20047;-68
2023/06/19 04:55:55;;;;;;;;;;;;;;;-144.99;80.91;52146.44;5055853;28;19939;-67
2023/06/19 04:58:21;;;;;;;;;;;;;;;-144.99;80.50;52191.28;5063016;28;20288;-66
2023/06/19 05:00:51;;;;;;;;;;;;;;;-144.99;80.55;52162.75;5047793;28;19929;-66
2023/06/19 05:03:18;;;;;;;;;;;;;;;-144.99;80.31;52187.19;5045843;28;19928;-67
2023/06/19 05:05:46;;;;;;;;;;;;;;;-144.99;80.13;52158.66;5049619;28;20295;-67
2023/06/19 05:08:13;;;;;;;;;;;;;;;-144.99;80.34;52162.75;5050028;28;19931;-66
2023/06/19 05:10:40;;;;;;;;;;;;;;;-144.99;80.45;52187.19;5049010;28;19963;-66
2023/06/19 05:13:06;;;;;;;;;;;;;;;-144.99;80.21;52193.31;5059362;28;19935;-66
2023/06/19 05:15:33;;;;;;;;;;;;;;;-144.99;80.47;52164.78;5063179;28;20008;-67
2023/06/19 05:18:00;;;;;;;;;;;;;;;-144.99;80.25;52174.97;5081055;28;20286;-72
2023/06/19 05:20:26;;;;;;;;;;;;;;;-144.99;80.45;52174.97;5076077;28;19967;-73
2023/06/19 05:22:54;;;;;;;;;;;;;;;-144.99;80.11;52130.13;5068725;28;20309;-71
2023/06/19 05:25:21;;;;;;;;;;;;;;;-144.99;79.71;52189.25;5056743;28;20024;-71
2023/06/19 05:27:47;;;;;;;;;;;;;;;-144.99;79.60;52170.91;5064546;28;20287;-69
2023/06/19 05:30:14;;;;;;;;;;;;;;;-144.99;79.49;52199.44;5067299;28;19966;-67
2023/06/19 05:32:41;;;;;;;;;;;;;;;-144.99;79.57;52174.97;5063623;28;20291;-67
2023/06/19 05:35:08;;;;;;;;;;;;;;;-144.99;79.89;52156.63;5062187;28;19928;-67
2023/06/19 05:37:34;;;;;;;;;;;;;;;-144.99;79.77;52207.59;5055760;28;20008;-68
2023/06/19 05:40:03;;;;;;;;;;;;;;;-144.99;79.88;52189.25;5059766;28;19968;-67
2023/06/19 05:42:30;;;;;;;;;;;;;;;-144.99;79.71;52177.00;5073660;28;20023;-67
2023/06/19 05:44:56;;;;;;;;;;;;;;;-144.99;79.63;52187.19;5061589;28;20356;-68
2023/06/19 05:47:25;;;;;;;;;;;;;;;-144.99;79.60;52158.66;5065111;28;19949;-70
2023/06/19 05:49:52;;;;;;;;;;;;;;;-144.99;79.41;52195.34;5068517;28;19928;-68
2023/06/19 05:52:19;;;;;;;;;;;;;;;-144.99;79.73;52183.13;5056806;28;19950;-68
2023/06/19 05:54:45;;;;;;;;;;;;;;;-144.99;79.72;52142.38;5061764;28;19953;-67
2023/06/19 05:57:15;;;;;;;;;;;;;;;-144.99;79.37;52170.91;5071635;28;19958;-68
2023/06/19 05:59:42;;;;;;;;;;;;;;;-144.99;80.24;52154.59;5066436;28;19961;-69
2023/06/19 06:02:09;;;;;;;;;;;;;;;-144.99;80.41;52170.91;5062219;28;20326;-69
2023/06/19 06:04:36;;;;;;;;;;;;;;;-144.99;80.97;52154.59;5054986;28;19943;-69
2023/06/19 06:07:02;;;;;;;;;;;;;;;-144.99;81.07;52146.44;5057225;28;19939;-68
2023/06/19 06:09:29;;;;;;;;;;;;;;;-144.99;81.37;52158.66;5062049;28;19957;-69
2023/06/19 06:11:56;;;;;;;;;;;;;;;-144.99;80.95;52174.97;5076493;28;20433;-68
2023/06/19 06:14:24;;;;;;;;;;;;;;;-144.99;81.90;52170.91;5067535;28;20026;-68
2023/06/19 06:16:50;;;;;;;;;;;;;;;-144.99;81.77;52154.59;5063914;28;19965;-67
2023/06/19 06:19:17;;;;;;;;;;;;;;;-144.99;81.95;52154.59;5066193;28;19940;-67
2023/06/19 06:21:44;;;;;;;;;;;;;;;-144.99;81.83;52170.91;5067420;28;19924;-65
2023/06/19 06:24:10;;;;;;;;;;;;;;;-144.99;81.82;52162.75;5064000;28;19960;-65
2023/06/19 06:26:37;;;;;;;;;;;;;;;-144.99;82.15;52187.19;5071125;28;19952;-65
2023/06/19 06:29:04;;;;;;;;;;;;;;;-144.99;82.33;52174.97;5070258;28;19954;-66
2023/06/19 06:31:32;;;;;;;;;;;;;;;-144.99;82.66;52134.22;5067503;28;20390;-67
2023/06/19 06:33:59;;;;;;;;;;;;;;;-144.99;82.37;52152.56;5072080;28;19932;-67
2023/06/19 06:36:25;;;;;;;;;;;;;;;-144.99;82.21;52146.44;5059658;28;20292;-67
2023/06/19 06:38:52;;;;;;;;;;;;;;;-144.99;82.59;52134.22;5052024;28;19942;-69
2023/06/19 06:41:19;;;;;;;;;;;;;;;-144.99;82.71;52158.66;5059344;28;20088;-69
2023/06/19 06:43:45;;;;;;;;;;;;;;;-144.99;83.56;52154.59;5057041;28;19965;-68
2023/06/19 06:46:12;;;;;;;;;;;;;;;-144.99;83.57;52179.06;5053260;28;19968;-68
2023/06/19 06:48:40;;;;;;;;;;;;;;;-144.99;83.35;52158.66;5065808;28;19966;-68
2023/06/19 06:51:09;;;;;;;;;;;;;;;-144.99;83.13;52146.44;5068104;28;20434;-68
2023/06/19 06:53:35;;;;;;;;;;;;;;;-144.99;83.68;52101.59;5060113;28;19974;-66
2023/06/19 06:56:02;;;;;;;;;;;;;;;-144.99;83.80;52162.75;5068353;28;19924;-67
2023/06/19 06:58:29;;;;;;;;;;;;;;;-144.99;83.87;52117.91;5057222;28;20462;-67
2023/06/19 07:00:56;;;;;;;;;;;;;;;-144.99;84.08;52130.13;5049105;28;20292;-69
2023/06/19 07:03:23;;;;;;;;;;;;;;;-144.99;84.74;52142.38;5059141;28;20449;-67
2023/06/19 07:05:50;;;;;;;;;;;;;;;-144.99;84.66;52136.25;5055441;28;19950;-68
2023/06/19 07:08:17;;;;;;;;;;;;;;;-144.99;84.63;52142.38;5053089;28;19939;-68
2023/06/19 07:10:44;;;;;;;;;;;;;;;-144.99;84.70;52146.44;5057032;28;20399;-68
2023/06/19 07:13:10;;;;;;;;;;;;;;;-144.99;84.64;52146.44;5058367;28;19935;-67
2023/06/19 07:15:37;;;;;;;;;;;;;;;-144.99;85.18;52105.69;5059817;28;19946;-68
2023/06/19 07:18:04;;;;;;;;;;;;;;;-144.99;85.48;52154.59;5059017;28;20243;-67
2023/06/19 07:20:30;;;;;;;;;;;;;;;-144.99;85.42;52138.28;5050832;28;19955;-67
2023/06/19 07:23:00;;;;;;;;;;;;;;;-144.99;85.65;52109.75;5054361;28;20328;-68
2023/06/19 07:25:26;;;;;;;;;;;;;;;-144.99;85.18;52146.44;5063692;28;20362;-68
2023/06/19 07:27:53;;;;;;;;;;;;;;;-144.99;85.28;52150.53;5057234;28;20069;-68
2023/06/19 07:30:20;;;;;;;;;;;;;;;-144.99;85.14;52136.25;5058339;28;19966;-68
2023/06/19 07:32:46;;;;;;;;;;;;;;;-144.99;84.91;52162.75;5077231;28;20172;-68
2023/06/19 07:35:13;;;;;;;;;;;;;;;-144.99;85.29;52174.97;5072311;28;19939;-67
2023/06/19 07:37:40;;;;;;;;;;;;;;;-144.99;85.62;52146.44;5064431;28;19963;-67
2023/06/19 07:40:09;;;;;;;;;;;;;;;-144.99;85.85;52103.66;5064311;28;20420;-67
2023/06/19 07:42:35;;;;;;;;;;;;;;;-144.99;85.22;52134.22;5071871;28;19951;-67
2023/06/19 07:45:02;;;;;;;;;;;;;;;-144.99;84.62;52130.13;5071474;28;20416;-67
2023/06/19 07:47:28;;;;;;;;;;;;;;;-144.99;84.52;52085.31;5071719;28;20363;-67
2023/06/19 07:49:55;;;;;;;;;;;;;;;-144.99;83.98;52146.44;5055073;28;19989;-67
2023/06/19 07:52:22;;;;;;;;;;;;;;;-144.99;83.43;52087.34;5057650;28;20410;-67
2023/06/19 07:54:49;;;;;;;;;;;;;;;-144.99;83.27;52081.22;5050647;28;19935;-67
2023/06/19 07:57:17;;;;;;;;;;;;;;;-144.99;82.57;52083.25;5064504;28;20019;-67
2023/06/19 07:59:44;;;;;;;;;;;;;;;-144.99;81.66;52132.19;5062178;28;20456;-67
2023/06/19 08:02:11;;;;;;;;;;;;;;;-144.99;81.08;52101.59;5064639;28;19950;-69
2023/06/19 08:04:37;;;;;;;;;;;;;;;-144.99;80.47;52077.16;5067741;28;19925;-71
2023/06/19 08:07:04;;;;;;;;;;;;;;;-144.99;80.87;52097.53;5063928;28;19937;-69
2023/06/19 08:09:31;;;;;;;;;;;;;;;-144.99;78.13;52060.84;5059301;28;19948;-69
2023/06/19 08:11:58;;;;;;;;;;;;;;;-144.99;78.90;52077.16;5063130;28;19944;-70
2023/06/19 08:14:26;;;;;;;;;;;;;;;-144.99;76.75;52083.25;5059854;28;19965;-61
2023/06/19 08:16:52;;;;;;;;;;;;;;;-144.99;75.88;52103.66;5063180;28;19932;-61
2023/06/19 08:19:19;;;;;;;;;;;;;;;-144.99;76.23;52113.84;5057494;28;19964;-60
2023/06/19 08:21:46;;;;;;;;;;;;;;;-144.99;74.98;52093.44;5074276;28;20474;-61
2023/06/19 08:24:12;;;;;;;;;;;;;;;-144.99;74.87;52085.31;5057346;28;20036;-61
2023/06/19 08:26:39;;;;;;;;;;;;;;;-144.99;72.90;52052.69;5068186;28;19941;-61
2023/06/19 08:29:06;;;;;;;;;;;;;;;-144.99;73.82;52066.97;5063559;28;19973;-61
2023/06/19 08:31:34;;;;;;;;;;;;;;;-144.99;73.77;52077.16;5072627;28;20059;-61
2023/06/19 08:34:04;;;;;;;;;;;;;;;-144.99;73.50;52040.47;5058845;28;19939;-61
2023/06/19 08:36:31;;;;;;;;;;;;;;;-144.99;72.76;52048.63;5063800;28;20005;-61
2023/06/19 08:38:57;;;;;;;;;;;;;;;-144.99;71.17;52036.38;5068352;28;19944;-61
2023/06/19 08:41:24;;;;;;;;;;;;;;;-144.99;70.89;52040.47;5063613;28;20183;-61
2023/06/19 08:43:50;;;;;;;;;;;;;;;-144.99;70.85;52028.22;5063920;28;20511;-63
2023/06/19 08:46:18;;;;;;;;;;;;;;;-144.99;70.85;52044.53;5065850;28;19940;-63
2023/06/19 08:48:46;;;;;;;;;;;;;;;-144.99;71.24;52075.09;5063988;28;19946;-63
2023/06/19 08:51:13;;;;;;;;;;;;;;;-144.99;70.48;52077.16;5062815;28;19936;-63
2023/06/19 08:53:45;;;;;;;;;;;;;;;-144.99;70.47;52040.47;5066846;28;20024;-63
2023/06/19 08:56:12;;;;;;;;;;;;;;;-144.99;70.23;52052.69;5064087;28;19945;-63
2023/06/19 08:58:38;;;;;;;;;;;;;;;-144.99;69.77;51999.69;5064078;28;19983;-63
2023/06/19 09:01:05;;;;;;;;;;;;;;;-144.99;69.16;52028.22;5067028;28;19955;-63
2023/06/19 09:03:32;;;;;;;;;;;;;;;-144.99;68.63;52022.13;5066650;28;19961;-64
2023/06/19 09:06:03;;;;;;;;;;;;;;;-144.99;68.39;52028.22;5064994;28;20380;-64
2023/06/19 09:08:30;;;;;;;;;;;;;;;-144.99;68.66;51995.63;5064835;28;19946;-64
2023/06/19 09:10:57;;;;;;;;;;;;;;;-144.99;67.95;51997.66;5050009;28;19961;-64
2023/06/19 09:13:24;;;;;;;;;;;;;;;-144.99;67.78;52028.22;5061855;28;19945;-64
2023/06/19 09:15:58;;;;;;;;;;;;;;;-144.99;67.13;52020.09;5056573;28;19964;-64
2023/06/19 09:18:25;;;;;;;;;;;;;;;-144.99;67.19;52003.78;5049060;28;19942;-64
2023/06/19 09:20:54;;;;;;;;;;;;;;;-144.99;67.32;52007.84;5052135;28;20021;-64
2023/06/19 09:23:22;;;;;;;;;;;;;;;-144.99;67.42;51999.69;5056393;28;20060;-64
2023/06/19 09:25:50;;;;;;;;;;;;;;;-144.99;67.31;52009.91;5058082;28;19932;-64
2023/06/19 09:28:20;;;;;;;;;;;;;;;-144.99;66.91;52003.78;5052239;28;20369;-64
2023/06/19 09:30:54;;;;;;;;;;;;;;;-144.99;66.66;51997.66;5059782;28;19970;-64
2023/06/19 09:33:20;;;;;;;;;;;;;;;-144.99;66.95;52007.84;5054520;28;19928;-64
2023/06/19 09:35:48;;;;;;;;;;;;;;;-144.99;67.13;51999.69;5049567;28;20414;-64
2023/06/19 09:38:16;;;;;;;;;;;;;;;-144.99;66.93;51995.63;5054642;28;20042;-65
2023/06/19 09:40:45;;;;;;;;;;;;;;;-144.99;67.07;51979.31;5057906;28;19994;-64
2023/06/19 09:43:12;;;;;;;;;;;;;;;-144.99;66.88;51981.38;5057547;28;19939;-64
2023/06/19 09:45:40;;;;;;;;;;;;;;;-144.99;66.73;51971.16;5050048;28;19938;-64
2023/06/19 09:48:09;;;;;;;;;;;;;;;-144.99;66.33;51983.41;5045547;28;20049;-64
2023/06/19 09:50:37;;;;;;;;;;;;;;;-144.99;66.28;51971.16;5045682;28;20034;-63
2023/06/19 09:53:05;;;;;;;;;;;;;;;-144.99;65.84;52020.09;5043923;28;20335;-64
2023/06/19 09:55:33;;;;;;;;;;;;;;;-144.99;65.78;52016.00;5071986;22;20047;-68
2023/06/19 09:58:01;;;;;;;;;;;;;;;-144.99;65.21;51991.56;5081764;28;20028;-68
2023/06/19 10:00:31;;;;;;;;;;;;;;;-144.99;65.81;51997.66;5081353;28;20457;-68
2023/06/19 10:03:00;;;;;;;;;;;;;;;-144.99;66.25;51985.44;5084834;28;19943;-68
2023/06/19 10:05:30;;;;;;;;;;;;;;;-144.99;66.27;52007.84;5084741;28;19985;-68
2023/06/19 10:07:59;;;;;;;;;;;;;;;-144.99;66.23;51977.28;5081911;28;19967;-68
2023/06/19 10:10:26;;;;;;;;;;;;;;;-144.99;65.66;51950.78;5078032;28;19963;-68
2023/06/19 10:12:55;;;;;;;;;;;;;;;-144.99;65.67;51971.16;5082189;28;19946;-68
2023/06/19 10:15:24;;;;;;;;;;;;;;;-144.99;64.21;51946.72;5083142;28;19965;-68
2023/06/19 10:17:52;;;;;;;;;;;;;;;-144.99;64.57;51926.34;5085798;28;19963;-68
2023/06/19 10:20:23;;;;;;;;;;;;;;;-144.99;64.07;51946.72;5083045;28;19956;-68
2023/06/19 10:22:53;;;;;;;;;;;;;;;-144.99;63.51;51930.41;5070526;28;20316;-68
2023/06/19 10:25:23;;;;;;;;;;;;;;;-144.99;62.76;51901.88;5080536;28;19968;-69
2023/06/19 10:27:52;;;;;;;;;;;;;;;-144.99;61.54;51897.81;5084303;28;20049;-68
2023/06/19 10:30:19;;;;;;;;;;;;;;;-144.99;61.59;51893.72;5082110;28;19958;-69
2023/06/19 10:32:47;;;;;;;;;;;;;;;-144.99;62.41;51901.88;5082050;28;20099;-68
2023/06/19 10:35:13;;;;;;;;;;;;;;;-144.99;62.75;51936.53;5079657;28;21676;-69
2023/06/19 10:37:40;;;;;;;;;;;;;;;-144.99;62.22;51938.56;5076540;28;19959;-69
2023/06/19 10:40:09;;;;;;;;;;;;;;;-144.99;63.22;51930.41;5073594;28;19956;-69
2023/06/19 10:42:37;;;;;;;;;;;;;;;-144.99;62.84;51952.81;5081221;28;19952;-70
2023/06/19 10:45:05;;;;;;;;;;;;;;;-144.99;62.92;51963.03;5078025;28;19967;-69
2023/06/19 10:47:32;;;;;;;;;;;;;;;-144.99;62.78;51950.78;5080909;28;20413;-71
2023/06/19 10:50:00;;;;;;;;;;;;;;;-144.99;63.33;51942.63;5072061;28;19954;-68
2023/06/19 10:52:29;;;;;;;;;;;;;;;-144.99;62.88;51934.50;5083310;28;19940;-69
2023/06/19 10:54:55;;;;;;;;;;;;;;;-144.99;62.56;51926.34;5084766;28;20419;-68
2023/06/19 10:57:27;;;;;;;;;;;;;;;-144.99;62.63;51967.09;5088334;28;20324;-69
2023/06/19 10:59:54;;;;;;;;;;;;;;;-144.99;61.40;51922.25;5078979;28;20365;-68
2023/06/19 11:02:21;;;;;;;;;;;;;;;-144.99;61.14;51930.41;5082088;28;20248;-70
2023/06/19 11:04:48;;;;;;;;;;;;;;;-144.99;61.32;51903.91;5084194;28;20069;-68
2023/06/19 11:07:16;;;;;;;;;;;;;;;-144.99;61.39;51903.91;5079797;28;19941;-68
2023/06/19 11:09:43;;;;;;;;;;;;;;;-144.99;61.83;51914.09;5082973;28;19968;-70
2023/06/19 11:12:10;;;;;;;;;;;;;;;-144.99;60.98;51848.91;5087141;28;19938;-68
2023/06/19 11:14:39;;;;;;;;;;;;;;;-144.99;60.63;51891.69;5086621;28;19945;-67
2023/06/19 11:17:06;;;;;;;;;;;;;;;-144.99;60.23;51885.56;5087377;28;19946;-68
2023/06/19 11:19:34;;;;;;;;;;;;;;;-144.99;60.70;51934.50;5088338;28;20069;-68
2023/06/19 11:22:02;;;;;;;;;;;;;;;-144.99;61.24;51903.91;5087734;28;20359;-69
2023/06/19 11:24:30;;;;;;;;;;;;;;;-144.99;60.39;51914.09;5078744;28;20352;-69
2023/06/19 11:26:59;;;;;;;;;;;;;;;-144.99;60.22;51934.50;5073313;28;20073;-69
2023/06/19 11:29:26;;;;;;;;;;;;;;;-144.99;60.08;51918.19;5069347;28;19963;-69
2023/06/19 11:31:54;;;;;;;;;;;;;;;-144.99;60.14;51946.72;5075743;28;19963;-69
2023/06/19 11:34:21;;;;;;;;;;;;;;;-144.99;60.25;51918.19;5080584;28;19948;-68
2023/06/19 11:36:47;;;;;;;;;;;;;;;-144.99;60.10;51861.13;5079196;28;20034;-69
2023/06/19 11:39:15;;;;;;;;;;;;;;;-144.99;60.48;51889.66;5078500;28;20230;-69
2023/06/19 11:41:44;;;;;;;;;;;;;;;-144.99;60.69;51914.09;5074096;28;20307;-69
2023/06/19 11:44:11;;;;;;;;;;;;;;;-144.99;60.71;51924.28;5082682;28;19958;-68
2023/06/19 11:46:37;;;;;;;;;;;;;;;-144.99;61.14;51979.31;5085448;28;19943;-70
2023/06/19 11:49:12;;;;;;;;;;;;;;;-144.99;61.59;51971.16;5083677;28;19998;-68
2023/06/19 11:51:38;;;;;;;;;;;;;;;-144.99;61.94;51967.09;5081053;28;20863;-69
2023/06/19 11:54:07;;;;;;;;;;;;;;;-144.99;61.99;52001.75;5081991;28;20089;-67
2023/06/19 11:56:33;;;;;;;;;;;;;;;-144.99;62.27;51991.56;5075912;28;19995;-69
2023/06/19 11:59:02;;;;;;;;;;;;;;;-144.99;62.49;52020.09;5084667;28;19936;-69
2023/06/19 12:01:29;;;;;;;;;;;;;;;-144.99;62.76;51995.63;5087273;28;20007;-67
2023/06/19 12:03:55;;;;;;;;;;;;;;;-144.99;62.63;51995.63;5078327;28;19935;-66
2023/06/19 12:06:22;;;;;;;;;;;;;;;-144.99;62.66;51967.09;5078393;28;19963;-67
2023/06/19 12:08:48;;;;;;;;;;;;;;;-144.99;63.32;52028.22;5072425;28;19951;-68
2023/06/19 12:11:15;;;;;;;;;;;;;;;-144.99;63.20;52016.00;5076756;28;19967;-68
2023/06/19 12:13:42;;;;;;;;;;;;;;;-144.99;63.52;52009.91;5078681;28;19947;-68
2023/06/19 12:16:10;;;;;;;;;;;;;;;-144.99;64.51;52028.22;5079894;28;19942;-68
2023/06/19 12:18:37;;;;;;;;;;;;;;;-144.99;65.19;52007.84;5071540;28;19988;-67
2023/06/19 12:21:04;;;;;;;;;;;;;;;-144.99;65.54;51999.69;5070077;28;19955;-68
2023/06/19 12:23:31;;;;;;;;;;;;;;;-144.99;65.70;52036.38;5071153;28;20011;-68
2023/06/19 12:25:57;;;;;;;;;;;;;;;-144.99;65.82;52044.53;5073478;28;19951;-67
2023/06/19 12:28:25;;;;;;;;;;;;;;;-144.99;65.52;52034.34;5069398;28;19942;-71